Time;durP1;ratioP1;P1;durP2;ratioP2;P2;SDS_P1;SDS_P2;PMS_P1;PMS_P2;Temp;Humidity;BMP_temperature;BMP_pressure;BME280_temperature;BME280_humidity;BME280_pressure;Samples;Min_cycle;Max_cycle;Signal;HPM_P1;HPM_P2
2023/11/27 00:01:24;;;;;;;9.97;6.13;;;;;;;;;;2611285;54;20491;-75
2023/11/27 00:03:50;;;;;;;12.13;6.10;;;;;;;;;;2611609;54;20408;-76
2023/11/27 00:06:16;;;;;;;9.20;5.70;;;;;;;;;;2613506;31;20915;-76
2023/11/27 00:08:42;;;;;;;8.30;5.80;;;;;;;;;;2612879;39;20775;-77
2023/11/27 00:11:08;;;;;;;9.60;5.70;;;;;;;;;;2612664;54;20976;-76
2023/11/27 00:13:34;;;;;;;7.70;5.40;;;;;;;;;;2612859;54;20978;-76
2023/11/27 00:16:00;;;;;;;11.20;7.23;;;;;;;;;;2612757;54;20896;-76
2023/11/27 00:18:26;;;;;;;11.80;6.40;;;;;;;;;;2612171;47;20485;-75
2023/11/27 00:20:53;;;;;;;16.50;6.60;;;;;;;;;;2611965;54;20420;-76
2023/11/27 00:23:19;;;;;;;11.20;6.70;;;;;;;;;;2612722;54;20427;-76
2023/11/27 00:25:46;;;;;;;13.07;6.83;;;;;;;;;;2612907;31;21214;-76
2023/11/27 00:28:12;;;;;;;18.60;6.47;;;;;;;;;;2612010;54;20431;-76
2023/11/27 00:30:38;;;;;;;8.73;5.60;;;;;;;;;;2612400;54;20406;-76
2023/11/27 00:33:04;;;;;;;8.13;4.60;;;;;;;;;;2612222;54;20578;-75
2023/11/27 00:35:32;;;;;;;11.17;6.43;;;;;;;;;;2612606;54;20410;-75
2023/11/27 00:37:58;;;;;;;8.33;4.13;;;;;;;;;;2613081;54;20439;-76
2023/11/27 00:40:24;;;;;;;9.20;5.53;;;;;;;;;;2612822;54;20974;-75
2023/11/27 00:42:50;;;;;;;11.30;4.77;;;;;;;;;;2612529;46;20423;-76
2023/11/27 00:45:16;;;;;;;9.63;6.13;;;;;;;;;;2612504;54;21320;-76
2023/11/27 00:47:42;;;;;;;9.57;6.17;;;;;;;;;;2612964;54;20426;-77
2023/11/27 00:50:09;;;;;;;12.77;5.83;;;;;;;;;;2612767;47;20438;-77
2023/11/27 00:52:35;;;;;;;10.40;6.07;;;;;;;;;;2613265;54;20438;-77
2023/11/27 00:55:01;;;;;;;8.10;7.23;;;;;;;;;;2613489;54;20438;-77
2023/11/27 00:57:27;;;;;;;8.37;6.50;;;;;;;;;;2613126;47;20418;-78
2023/11/27 00:59:53;;;;;;;8.80;4.97;;;;;;;;;;2613149;50;20427;-78
2023/11/27 01:02:19;;;;;;;6.37;4.00;;;;;;;;;;2612434;54;20542;-77
2023/11/27 01:04:45;;;;;;;7.53;4.30;;;;;;;;;;2613063;54;20456;-78
2023/11/27 01:07:12;;;;;;;7.63;6.30;;;;;;;;;;2613700;54;20389;-77
2023/11/27 01:09:39;;;;;;;7.23;5.60;;;;;;;;;;2614011;54;20427;-78
2023/11/27 01:12:06;;;;;;;10.90;5.30;;;;;;;;;;2613199;54;21120;-77
2023/11/27 01:14:32;;;;;;;8.03;4.77;;;;;;;;;;2611585;47;20530;-77
2023/11/27 01:16:58;;;;;;;9.40;4.93;;;;;;;;;;2609195;54;21016;-74
2023/11/27 01:19:24;;;;;;;9.67;5.53;;;;;;;;;;2609913;54;20423;-75
2023/11/27 01:21:52;;;;;;;8.37;4.47;;;;;;;;;;2610264;54;20434;-75
2023/11/27 01:24:18;;;;;;;6.73;4.50;;;;;;;;;;2610810;54;20403;-75
2023/11/27 01:26:45;;;;;;;7.20;4.03;;;;;;;;;;2610902;54;20553;-74
2023/11/27 01:29:12;;;;;;;8.50;5.13;;;;;;;;;;2611201;54;20397;-75
2023/11/27 01:31:40;;;;;;;9.80;5.20;;;;;;;;;;2610716;54;20404;-76
2023/11/27 01:34:06;;;;;;;10.10;5.13;;;;;;;;;;2611196;54;20408;-75
2023/11/27 01:36:33;;;;;;;8.40;5.60;;;;;;;;;;2610925;54;20917;-76
2023/11/27 01:38:59;;;;;;;11.70;7.37;;;;;;;;;;2610493;54;20797;-76
2023/11/27 01:41:25;;;;;;;10.53;5.40;;;;;;;;;;2610688;47;20514;-74
2023/11/27 01:43:51;;;;;;;8.30;5.97;;;;;;;;;;2610960;54;20435;-75
2023/11/27 01:46:24;;;;;;;9.70;6.03;;;;;;;;;;2610935;54;20413;-75
2023/11/27 01:48:51;;;;;;;14.63;7.13;;;;;;;;;;2610883;54;20620;-77
2023/11/27 01:51:17;;;;;;;9.70;6.00;;;;;;;;;;2610649;54;20428;-76
2023/11/27 01:53:45;;;;;;;8.97;5.70;;;;;;;;;;2610453;39;20668;-75
2023/11/27 01:56:11;;;;;;;9.30;5.70;;;;;;;;;;2610219;54;20431;-75
2023/11/27 01:58:37;;;;;;;15.40;7.67;;;;;;;;;;2609222;39;20760;-74
2023/11/27 02:01:03;;;;;;;15.53;6.70;;;;;;;;;;2610730;54;20398;-75
2023/11/27 02:03:31;;;;;;;10.27;6.57;;;;;;;;;;2611526;54;20427;-75
2023/11/27 02:05:57;;;;;;;7.90;6.37;;;;;;;;;;2612405;39;20885;-75
2023/11/27 02:08:24;;;;;;;11.93;6.30;;;;;;;;;;2611301;47;20440;-76
2023/11/27 02:10:52;;;;;;;9.80;6.03;;;;;;;;;;2611090;54;20577;-75
2023/11/27 02:13:18;;;;;;;13.17;7.20;;;;;;;;;;2612428;54;21334;-75
2023/11/27 02:15:44;;;;;;;7.10;4.77;;;;;;;;;;2612660;54;20502;-74
2023/11/27 02:18:11;;;;;;;8.23;6.70;;;;;;;;;;2610887;54;20405;-76
2023/11/27 02:20:37;;;;;;;13.53;6.53;;;;;;;;;;2611222;47;20865;-75
2023/11/27 02:23:06;;;;;;;7.33;6.03;;;;;;;;;;2611478;54;20439;-76
2023/11/27 02:25:32;;;;;;;11.63;7.30;;;;;;;;;;2611921;46;20408;-76
2023/11/27 02:27:58;;;;;;;8.80;5.70;;;;;;;;;;2611466;47;20511;-75
2023/11/27 02:30:24;;;;;;;7.20;5.77;;;;;;;;;;2611378;46;20437;-76
2023/11/27 02:32:50;;;;;;;10.80;7.20;;;;;;;;;;2611369;54;20487;-76
2023/11/27 02:35:16;;;;;;;15.20;9.67;;;;;;;;;;2610642;47;20470;-75
2023/11/27 02:37:43;;;;;;;12.90;5.90;;;;;;;;;;2611317;54;20509;-75
2023/11/27 02:40:10;;;;;;;12.37;6.73;;;;;;;;;;2611362;47;20407;-75
2023/11/27 02:42:37;;;;;;;11.70;6.73;;;;;;;;;;2612185;54;20414;-75
2023/11/27 02:45:05;;;;;;;9.77;6.20;;;;;;;;;;2611724;47;20551;-75
2023/11/27 02:47:31;;;;;;;13.70;8.70;;;;;;;;;;2611543;54;20404;-75
2023/11/27 02:49:57;;;;;;;19.30;7.10;;;;;;;;;;2611101;51;20453;-75
2023/11/27 02:52:23;;;;;;;10.70;7.57;;;;;;;;;;2612506;54;20392;-75
2023/11/27 02:54:49;;;;;;;11.83;7.40;;;;;;;;;;2612497;54;20993;-75
2023/11/27 02:57:16;;;;;;;13.87;8.50;;;;;;;;;;2612438;54;20601;-75
2023/11/27 02:59:42;;;;;;;14.23;7.47;;;;;;;;;;2611643;54;20410;-74
2023/11/27 03:02:08;;;;;;;9.53;6.87;;;;;;;;;;2611312;54;20460;-75
2023/11/27 03:04:35;;;;;;;11.67;8.27;;;;;;;;;;2613544;54;20391;-76
2023/11/27 03:07:01;;;;;;;19.10;5.27;;;;;;;;;;2613880;54;20419;-76
2023/11/27 03:09:27;;;;;;;11.70;7.47;;;;;;;;;;2613800;39;20853;-77
2023/11/27 03:11:54;;;;;;;8.60;7.00;;;;;;;;;;2613743;54;20407;-76
2023/11/27 03:14:20;;;;;;;13.47;8.20;;;;;;;;;;2614057;46;20435;-75
2023/11/27 03:16:46;;;;;;;11.20;8.53;;;;;;;;;;2613675;47;20411;-76
2023/11/27 03:19:12;;;;;;;11.40;7.93;;;;;;;;;;2613477;54;20431;-76
2023/11/27 03:21:38;;;;;;;17.37;8.43;;;;;;;;;;2613542;54;20464;-75
2023/11/27 03:24:04;;;;;;;8.43;6.77;;;;;;;;;;2612908;54;20423;-74
2023/11/27 03:26:30;;;;;;;14.43;8.33;;;;;;;;;;2611841;54;20458;-75
2023/11/27 03:28:56;;;;;;;15.87;7.73;;;;;;;;;;2611188;47;20434;-75
2023/11/27 03:31:23;;;;;;;12.00;8.60;;;;;;;;;;2612425;54;20379;-75
2023/11/27 03:33:49;;;;;;;13.27;7.93;;;;;;;;;;2612059;54;20426;-75
2023/11/27 03:36:15;;;;;;;10.30;7.87;;;;;;;;;;2612170;54;20394;-75
2023/11/27 03:38:41;;;;;;;8.00;5.77;;;;;;;;;;2612222;54;20540;-75
2023/11/27 03:41:16;;;;;;;9.17;7.03;;;;;;;;;;2612474;39;21287;-75
2023/11/27 03:43:42;;;;;;;7.73;5.93;;;;;;;;;;2611581;54;20426;-74
2023/11/27 03:46:08;;;;;;;9.83;7.20;;;;;;;;;;2611647;47;20416;-75
2023/11/27 03:48:34;;;;;;;10.47;7.50;;;;;;;;;;2611561;54;20415;-74
2023/11/27 03:51:01;;;;;;;15.43;5.03;;;;;;;;;;2610979;47;20434;-75
2023/11/27 03:53:27;;;;;;;7.50;6.13;;;;;;;;;;2612571;39;21179;-74
2023/11/27 03:55:53;;;;;;;10.13;7.40;;;;;;;;;;2611953;54;21392;-74
2023/11/27 03:58:22;;;;;;;9.47;6.70;;;;;;;;;;2611516;54;20453;-74
2023/11/27 04:00:49;;;;;;;8.77;7.43;;;;;;;;;;2611257;54;20400;-75
2023/11/27 04:03:15;;;;;;;8.63;5.90;;;;;;;;;;2611507;54;20439;-74
2023/11/27 04:05:41;;;;;;;11.80;6.97;;;;;;;;;;2612017;54;20427;-74
2023/11/27 04:08:08;;;;;;;8.60;7.33;;;;;;;;;;2611361;54;21125;-76
2023/11/27 04:10:34;;;;;;;10.07;7.30;;;;;;;;;;2612077;54;20452;-75
2023/11/27 04:13:00;;;;;;;8.10;7.00;;;;;;;;;;2611024;47;21415;-75
2023/11/27 04:15:29;;;;;;;8.90;7.83;;;;;;;;;;2611671;54;20375;-75
2023/11/27 04:17:55;;;;;;;15.60;7.87;;;;;;;;;;2611104;54;20459;-75
2023/11/27 04:20:21;;;;;;;11.53;8.00;;;;;;;;;;2610424;54;20434;-74
2023/11/27 04:22:47;;;;;;;15.80;8.33;;;;;;;;;;2612390;54;20440;-75
2023/11/27 04:25:13;;;;;;;8.83;5.97;;;;;;;;;;2612468;54;20423;-75
2023/11/27 04:27:39;;;;;;;12.57;8.27;;;;;;;;;;2611163;54;20417;-74
2023/11/27 04:30:06;;;;;;;12.57;7.57;;;;;;;;;;2611177;47;20954;-75
2023/11/27 04:32:32;;;;;;;12.17;8.20;;;;;;;;;;2611711;54;20445;-75
2023/11/27 04:34:59;;;;;;;11.20;7.57;;;;;;;;;;2611174;54;20404;-74
2023/11/27 04:37:25;;;;;;;12.37;8.20;;;;;;;;;;2611252;47;20873;-74
2023/11/27 04:39:54;;;;;;;11.30;8.00;;;;;;;;;;2611229;54;20423;-75
2023/11/27 04:42:20;;;;;;;12.13;7.87;;;;;;;;;;2612155;54;20426;-75
2023/11/27 04:44:47;;;;;;;12.07;8.10;;;;;;;;;;2611940;54;20399;-74
2023/11/27 04:47:13;;;;;;;13.70;7.07;;;;;;;;;;2611444;54;20470;-76
2023/11/27 04:49:39;;;;;;;10.20;8.07;;;;;;;;;;2611854;54;20404;-75
2023/11/27 04:52:05;;;;;;;11.30;8.83;;;;;;;;;;2611131;54;20402;-74
2023/11/27 04:54:31;;;;;;;13.87;8.73;;;;;;;;;;2611456;54;20404;-75
2023/11/27 04:56:58;;;;;;;10.90;8.40;;;;;;;;;;2610701;47;20419;-75
2023/11/27 04:59:24;;;;;;;16.33;9.30;;;;;;;;;;2611460;54;20930;-75
2023/11/27 05:01:50;;;;;;;9.93;8.20;;;;;;;;;;2611976;54;20755;-75
2023/11/27 05:04:17;;;;;;;14.63;8.17;;;;;;;;;;2610977;47;20978;-75
2023/11/27 05:06:46;;;;;;;9.77;8.40;;;;;;;;;;2611898;39;20765;-74
2023/11/27 05:09:13;;;;;;;19.07;10.67;;;;;;;;;;2611469;54;20410;-75
2023/11/27 05:11:39;;;;;;;19.13;9.87;;;;;;;;;;2610975;54;20388;-75
2023/11/27 05:14:06;;;;;;;10.37;6.80;;;;;;;;;;2611098;54;20966;-75
2023/11/27 05:16:32;;;;;;;10.10;8.00;;;;;;;;;;2612195;54;20391;-75
2023/11/27 05:18:58;;;;;;;14.10;8.33;;;;;;;;;;2611421;54;20411;-74
2023/11/27 05:21:24;;;;;;;15.20;9.40;;;;;;;;;;2611259;54;20502;-75
2023/11/27 05:23:52;;;;;;;17.20;9.47;;;;;;;;;;2611180;54;20455;-76
2023/11/27 05:26:18;;;;;;;11.20;8.90;;;;;;;;;;2613249;54;20395;-75
2023/11/27 05:28:44;;;;;;;12.50;9.37;;;;;;;;;;2613665;54;20431;-76
2023/11/27 05:31:13;;;;;;;11.90;9.60;;;;;;;;;;2613587;54;20451;-75
2023/11/27 05:33:39;;;;;;;11.07;8.50;;;;;;;;;;2612660;54;20459;-75
2023/11/27 05:36:06;;;;;;;6.70;5.80;;;;;;;;;;2612560;54;20414;-75
2023/11/27 05:38:33;;;;;;;17.07;10.43;;;;;;;;;;2612275;54;20415;-75
2023/11/27 05:41:01;;;;;;;12.93;9.07;;;;;;;;;;2613203;54;20402;-75
2023/11/27 05:43:28;;;;;;;16.90;10.00;;;;;;;;;;2613065;54;20406;-75
2023/11/27 05:45:56;;;;;;;13.73;9.43;;;;;;;;;;2610875;47;20434;-75
2023/11/27 05:48:22;;;;;;;12.40;10.00;;;;;;;;;;2610850;47;20413;-76
2023/11/27 05:50:49;;;;;;;13.67;8.37;;;;;;;;;;2610564;47;20511;-74
2023/11/27 05:53:15;;;;;;;12.00;8.23;;;;;;;;;;2611026;54;21183;-74
2023/11/27 05:55:41;;;;;;;12.03;7.50;;;;;;;;;;2611870;54;21230;-75
2023/11/27 05:58:08;;;;;;;11.97;8.40;;;;;;;;;;2610805;47;20394;-75
2023/11/27 06:00:34;;;;;;;12.67;9.07;;;;;;;;;;2610680;54;20407;-75
2023/11/27 06:03:00;;;;;;;11.10;7.90;;;;;;;;;;2610943;47;20431;-75
2023/11/27 06:05:26;;;;;;;10.87;6.23;;;;;;;;;;2611384;54;20371;-74
2023/11/27 06:07:54;;;;;;;13.23;6.97;;;;;;;;;;2612130;54;20539;-75
2023/11/27 06:10:20;;;;;;;13.63;7.73;;;;;;;;;;2610693;54;20454;-75
2023/11/27 06:12:46;;;;;;;17.13;7.30;;;;;;;;;;2611885;46;20488;-74
2023/11/27 06:15:14;;;;;;;9.57;7.87;;;;;;;;;;2611300;54;20420;-74
2023/11/27 06:17:40;;;;;;;11.27;7.30;;;;;;;;;;2612012;54;20409;-75
2023/11/27 06:20:09;;;;;;;13.00;7.47;;;;;;;;;;2611782;54;20429;-74
2023/11/27 06:22:36;;;;;;;9.40;7.50;;;;;;;;;;2611600;54;20438;-74
2023/11/27 06:25:02;;;;;;;13.73;7.90;;;;;;;;;;2610747;47;20410;-75
2023/11/27 06:27:28;;;;;;;11.70;6.63;;;;;;;;;;2611669;54;20997;-75
2023/11/27 06:29:54;;;;;;;10.90;7.87;;;;;;;;;;2611706;31;20922;-74
2023/11/27 06:32:21;;;;;;;7.60;5.73;;;;;;;;;;2611437;54;20447;-75
2023/11/27 06:34:47;;;;;;;7.87;6.23;;;;;;;;;;2610996;47;20428;-75
2023/11/27 06:37:13;;;;;;;10.60;6.70;;;;;;;;;;2611755;54;20443;-74
2023/11/27 06:39:39;;;;;;;7.47;6.00;;;;;;;;;;2611112;54;20412;-75
2023/11/27 06:42:05;;;;;;;10.07;6.70;;;;;;;;;;2611267;54;20382;-75
2023/11/27 06:44:32;;;;;;;13.93;6.27;;;;;;;;;;2611705;54;20410;-74
2023/11/27 06:46:59;;;;;;;13.00;8.13;;;;;;;;;;2611729;54;20446;-76
2023/11/27 06:49:26;;;;;;;14.60;7.00;;;;;;;;;;2611258;54;20405;-75
2023/11/27 06:51:52;;;;;;;6.20;5.30;;;;;;;;;;2612316;39;20861;-75
2023/11/27 06:54:28;;;;;;;24.07;7.63;;;;;;;;;;2612041;54;20499;-77
2023/11/27 06:56:54;;;;;;;7.00;5.80;;;;;;;;;;2615684;39;21014;-77
2023/11/27 06:59:22;;;;;;;8.60;6.70;;;;;;;;;;2615914;54;20415;-74
2023/11/27 07:01:49;;;;;;;17.30;6.20;;;;;;;;;;2616284;54;20427;-75
2023/11/27 07:04:15;;;;;;;11.87;6.53;;;;;;;;;;2613761;54;20407;-75
2023/11/27 07:06:41;;;;;;;5.63;4.97;;;;;;;;;;2615399;54;21321;-76
2023/11/27 07:09:07;;;;;;;11.47;5.90;;;;;;;;;;2615045;54;20998;-75
2023/11/27 07:11:35;;;;;;;10.83;6.23;;;;;;;;;;2614405;47;20415;-75
2023/11/27 07:14:01;;;;;;;11.00;6.97;;;;;;;;;;2615265;54;20402;-75
2023/11/27 07:16:28;;;;;;;12.80;6.00;;;;;;;;;;2615234;54;20521;-75
2023/11/27 07:18:59;;;;;;;9.83;6.00;;;;;;;;;;2614440;54;20490;-75
2023/11/27 07:21:26;;;;;;;11.40;6.80;;;;;;;;;;2614745;46;20418;-75
2023/11/27 07:23:56;;;;;;;12.63;5.87;;;;;;;;;;2614944;39;20819;-75
2023/11/27 07:26:24;;;;;;;7.27;5.93;;;;;;;;;;2612269;54;20423;-74
2023/11/27 07:28:50;;;;;;;7.30;5.00;;;;;;;;;;2614687;54;21184;-75
2023/11/27 07:31:18;;;;;;;9.23;5.37;;;;;;;;;;2613021;54;20419;-75
2023/11/27 07:33:45;;;;;;;10.17;6.40;;;;;;;;;;2613655;54;20550;-75
2023/11/27 07:36:11;;;;;;;7.70;6.00;;;;;;;;;;2613072;54;20414;-76
2023/11/27 07:38:40;;;;;;;6.83;6.10;;;;;;;;;;2612619;54;20470;-75
2023/11/27 07:41:06;;;;;;;9.83;5.63;;;;;;;;;;2613236;51;20402;-75
2023/11/27 07:43:34;;;;;;;10.27;5.73;;;;;;;;;;2614579;54;20509;-74
2023/11/27 07:46:01;;;;;;;7.67;5.33;;;;;;;;;;2612116;54;20411;-76
2023/11/27 07:48:27;;;;;;;9.40;4.53;;;;;;;;;;2611865;54;20419;-74
2023/11/27 07:50:53;;;;;;;12.20;5.80;;;;;;;;;;2611299;54;20396;-75
2023/11/27 07:53:20;;;;;;;13.00;6.30;;;;;;;;;;2611976;54;20454;-75
2023/11/27 07:55:49;;;;;;;6.77;5.33;;;;;;;;;;2612158;39;21276;-75
2023/11/27 07:58:15;;;;;;;4.47;3.33;;;;;;;;;;2610598;54;20419;-75
2023/11/27 08:00:41;;;;;;;11.80;5.30;;;;;;;;;;2610294;54;23164;-75
2023/11/27 08:03:07;;;;;;;7.10;6.00;;;;;;;;;;2611979;54;20423;-75
2023/11/27 08:05:35;;;;;;;7.00;4.60;;;;;;;;;;2612190;54;20410;-75
2023/11/27 08:08:01;;;;;;;5.20;4.80;;;;;;;;;;2614367;54;20521;-75
2023/11/27 08:10:30;;;;;;;6.37;4.70;;;;;;;;;;2613556;54;20437;-75
2023/11/27 08:12:57;;;;;;;11.27;3.73;;;;;;;;;;2613373;54;20407;-74
2023/11/27 08:15:24;;;;;;;5.47;4.70;;;;;;;;;;2613717;54;21029;-75
2023/11/27 08:18:00;;;;;;;6.50;4.70;;;;;;;;;;2614119;54;20406;-75
2023/11/27 08:20:32;;;;;;;5.83;4.10;;;;;;;;;;2615086;54;20402;-75
2023/11/27 08:22:59;;;;;;;5.17;3.80;;;;;;;;;;2613876;54;20436;-75
2023/11/27 08:25:27;;;;;;;6.93;4.80;;;;;;;;;;2614068;54;20408;-74
2023/11/27 08:27:55;;;;;;;4.87;3.87;;;;;;;;;;2614016;54;20476;-75
2023/11/27 08:30:22;;;;;;;4.77;2.83;;;;;;;;;;2614567;54;20564;-76
2023/11/27 08:32:48;;;;;;;2.70;2.50;;;;;;;;;;2614830;54;20455;-75
2023/11/27 08:35:14;;;;;;;7.77;3.50;;;;;;;;;;2615006;47;20463;-74
2023/11/27 08:37:46;;;;;;;4.17;3.50;;;;;;;;;;2614907;54;20467;-75
2023/11/27 08:40:12;;;;;;;3.43;3.00;;;;;;;;;;2615657;54;20411;-75
2023/11/27 08:42:40;;;;;;;5.87;3.70;;;;;;;;;;2614929;54;20422;-74
2023/11/27 08:45:18;;;;;;;4.77;3.60;;;;;;;;;;2614864;54;20498;-75
2023/11/27 08:47:52;;;;;;;4.30;3.33;;;;;;;;;;2615491;54;20498;-74
2023/11/27 08:50:33;;;;;;;3.40;2.77;;;;;;;;;;2615297;54;20395;-75
2023/11/27 08:53:01;;;;;;;6.13;4.47;;;;;;;;;;2615476;39;20990;-75
2023/11/27 08:55:31;;;;;;;5.03;3.93;;;;;;;;;;2612610;47;20439;-75
2023/11/27 08:57:59;;;;;;;4.23;3.83;;;;;;;;;;2609281;54;20425;-74
2023/11/27 09:00:28;;;;;;;4.60;3.33;;;;;;;;;;2611780;54;20455;-74
2023/11/27 09:02:56;;;;;;;3.43;2.53;;;;;;;;;;2611889;54;20398;-73
2023/11/27 09:05:26;;;;;;;3.23;2.43;;;;;;;;;;2612181;54;20404;-74
2023/11/27 09:07:53;;;;;;;4.60;3.60;;;;;;;;;;2611991;54;20402;-74
2023/11/27 09:10:20;;;;;;;4.30;3.40;;;;;;;;;;2611644;54;20540;-74
2023/11/27 09:12:48;;;;;;;4.83;3.07;;;;;;;;;;2611114;54;20526;-74
2023/11/27 09:15:14;;;;;;;5.43;3.13;;;;;;;;;;2612558;39;20840;-75
2023/11/27 09:17:40;;;;;;;3.80;2.67;;;;;;;;;;2612411;39;20545;-74
2023/11/27 09:20:09;;;;;;;4.47;3.70;;;;;;;;;;2611314;54;20396;-74
2023/11/27 09:22:35;;;;;;;3.67;2.53;;;;;;;;;;2611915;54;20474;-74
2023/11/27 09:25:01;;;;;;;3.10;2.80;;;;;;;;;;2611741;54;21068;-75
2023/11/27 09:27:28;;;;;;;2.30;2.10;;;;;;;;;;2611290;47;20418;-73
2023/11/27 09:29:54;;;;;;;5.83;2.67;;;;;;;;;;2611260;54;20517;-74
2023/11/27 09:32:20;;;;;;;4.13;2.43;;;;;;;;;;2612142;54;20440;-74
2023/11/27 09:34:46;;;;;;;4.00;2.83;;;;;;;;;;2611430;54;20451;-75
2023/11/27 09:37:12;;;;;;;3.03;2.20;;;;;;;;;;2611175;54;20505;-74
2023/11/27 09:39:38;;;;;;;4.37;3.00;;;;;;;;;;2611717;54;20398;-75
2023/11/27 09:42:04;;;;;;;3.73;2.80;;;;;;;;;;2610909;54;20435;-73
2023/11/27 09:44:32;;;;;;;4.50;3.10;;;;;;;;;;2611824;54;20403;-73
2023/11/27 09:46:59;;;;;;;2.23;2.03;;;;;;;;;;2611876;54;20517;-78
2023/11/27 09:49:28;;;;;;;2.77;1.93;;;;;;;;;;2611571;54;20916;-74
2023/11/27 09:52:00;;;;;;;2.93;2.20;;;;;;;;;;2612227;39;20815;-74
2023/11/27 09:54:29;;;;;;;2.20;1.90;;;;;;;;;;2611596;54;20418;-74
2023/11/27 09:56:55;;;;;;;2.50;2.17;;;;;;;;;;2611117;54;20402;-74
2023/11/27 09:59:22;;;;;;;2.60;1.67;;;;;;;;;;2611293;54;20398;-74
2023/11/27 10:01:48;;;;;;;2.47;1.60;;;;;;;;;;2611004;54;20415;-74
2023/11/27 10:04:15;;;;;;;2.40;1.93;;;;;;;;;;2611122;54;20407;-75
2023/11/27 10:06:42;;;;;;;1.70;1.60;;;;;;;;;;2613586;54;20446;-74
2023/11/27 10:09:13;;;;;;;1.50;1.30;;;;;;;;;;2613749;54;20402;-74
2023/11/27 10:11:39;;;;;;;1.70;1.53;;;;;;;;;;2612913;47;20402;-74
2023/11/27 10:14:06;;;;;;;2.90;2.30;;;;;;;;;;2612769;54;20403;-73
2023/11/27 10:16:32;;;;;;;1.73;1.47;;;;;;;;;;2613886;54;20455;-74
2023/11/27 10:19:08;;;;;;;2.13;1.80;;;;;;;;;;2613850;54;20450;-75
2023/11/27 10:21:34;;;;;;;2.00;1.57;;;;;;;;;;2614025;39;20803;-74
2023/11/27 10:24:03;;;;;;;1.70;1.60;;;;;;;;;;2614361;54;20413;-74
2023/11/27 10:26:30;;;;;;;2.57;1.93;;;;;;;;;;2612902;46;20454;-73
2023/11/27 10:29:00;;;;;;;2.70;1.53;;;;;;;;;;2611152;54;20411;-74
2023/11/27 10:31:26;;;;;;;2.67;2.00;;;;;;;;;;2612082;54;20547;-74
2023/11/27 10:33:53;;;;;;;2.70;1.93;;;;;;;;;;2611642;54;20422;-74
2023/11/27 10:36:23;;;;;;;2.67;2.10;;;;;;;;;;2611797;39;21247;-74
2023/11/27 10:38:59;;;;;;;2.70;2.30;;;;;;;;;;2612528;54;20381;-74
2023/11/27 10:41:25;;;;;;;3.73;2.90;;;;;;;;;;2612195;54;20447;-74
2023/11/27 10:43:52;;;;;;;2.33;1.90;;;;;;;;;;2611237;39;20850;-74
2023/11/27 10:46:18;;;;;;;2.30;2.10;;;;;;;;;;2610773;54;20421;-74
2023/11/27 10:48:45;;;;;;;6.50;1.90;;;;;;;;;;2612137;54;20422;-74
2023/11/27 10:51:15;;;;;;;1.50;1.30;;;;;;;;;;2611198;51;20403;-74
2023/11/27 10:53:43;;;;;;;1.83;1.70;;;;;;;;;;2612203;54;20387;-74
2023/11/27 10:56:10;;;;;;;3.37;2.40;;;;;;;;;;2611055;47;20388;-75
2023/11/27 10:58:38;;;;;;;3.00;2.23;;;;;;;;;;2611589;54;20406;-74
2023/11/27 11:01:07;;;;;;;3.80;2.73;;;;;;;;;;2610934;54;20414;-73
2023/11/27 11:03:34;;;;;;;1.80;1.70;;;;;;;;;;2611512;54;21082;-75
2023/11/27 11:06:00;;;;;;;2.43;2.10;;;;;;;;;;2611826;54;20406;-74
2023/11/27 11:08:27;;;;;;;3.90;2.40;;;;;;;;;;2611843;54;20428;-74
2023/11/27 11:10:55;;;;;;;2.50;2.10;;;;;;;;;;2612289;39;20814;-75
2023/11/27 11:13:22;;;;;;;3.20;2.07;;;;;;;;;;2612314;39;20822;-74
2023/11/27 11:16:00;;;;;;;2.13;1.93;;;;;;;;;;2612042;39;20779;-75
2023/11/27 11:18:43;;;;;;;2.27;1.77;;;;;;;;;;2611215;46;20439;-75
2023/11/27 11:21:27;;;;;;;2.47;2.07;;;;;;;;;;2612053;54;20497;-74
2023/11/27 11:24:12;;;;;;;1.67;1.47;;;;;;;;;;2612788;39;20943;-75
2023/11/27 11:27:01;;;;;;;3.47;1.90;;;;;;;;;;2612334;54;20398;-72
2023/11/27 11:29:34;;;;;;;2.00;1.80;;;;;;;;;;2611526;54;20426;-75
2023/11/27 11:32:01;;;;;;;2.67;2.30;;;;;;;;;;2611812;54;20990;-74
2023/11/27 11:34:29;;;;;;;3.03;1.70;;;;;;;;;;2611789;54;20430;-73
2023/11/27 11:37:04;;;;;;;2.00;1.80;;;;;;;;;;2613633;54;20432;-74
2023/11/27 11:39:30;;;;;;;2.80;2.27;;;;;;;;;;2614046;54;20429;-74
2023/11/27 11:42:04;;;;;;;3.63;2.40;;;;;;;;;;2613763;54;20439;-73
2023/11/27 11:44:35;;;;;;;3.40;2.20;;;;;;;;;;2614284;54;20447;-73
2023/11/27 11:47:25;;;;;;;3.10;2.50;;;;;;;;;;2613829;46;20489;-73
2023/11/27 11:49:51;;;;;;;3.30;2.43;;;;;;;;;;2614003;54;20462;-73
2023/11/27 11:52:19;;;;;;;2.03;1.83;;;;;;;;;;2613564;54;20406;-74
2023/11/27 11:54:47;;;;;;;3.23;2.37;;;;;;;;;;2614410;39;21038;-73
2023/11/27 11:57:31;;;;;;;4.70;2.30;;;;;;;;;;2614630;54;20961;-74
2023/11/27 12:00:04;;;;;;;2.50;2.03;;;;;;;;;;2613772;54;20419;-74
2023/11/27 12:02:31;;;;;;;3.37;3.17;;;;;;;;;;2613551;54;20410;-73
2023/11/27 12:04:58;;;;;;;2.50;1.90;;;;;;;;;;2612092;47;20390;-74
2023/11/27 12:07:26;;;;;;;3.10;1.97;;;;;;;;;;2613871;46;20909;-74
2023/11/27 12:09:57;;;;;;;4.33;2.50;;;;;;;;;;2613166;51;21033;-73
2023/11/27 12:12:23;;;;;;;4.50;2.60;;;;;;;;;;2614367;39;20899;-73
2023/11/27 12:14:54;;;;;;;2.00;1.47;;;;;;;;;;2613661;54;20431;-74
2023/11/27 12:17:21;;;;;;;4.03;2.80;;;;;;;;;;2612951;54;20438;-73
2023/11/27 12:19:47;;;;;;;2.40;2.20;;;;;;;;;;2613470;54;20411;-73
2023/11/27 12:22:14;;;;;;;2.57;2.37;;;;;;;;;;2613688;54;20970;-73
2023/11/27 12:24:50;;;;;;;2.70;2.07;;;;;;;;;;2613505;54;20507;-74
2023/11/27 12:27:17;;;;;;;2.90;2.57;;;;;;;;;;2612744;54;20422;-73
2023/11/27 12:29:48;;;;;;;3.13;2.43;;;;;;;;;;2612502;47;20439;-75
2023/11/27 12:32:15;;;;;;;2.97;2.53;;;;;;;;;;2613807;54;20441;-73
2023/11/27 12:34:41;;;;;;;4.43;2.27;;;;;;;;;;2612605;54;20480;-74
2023/11/27 12:37:11;;;;;;;5.47;2.63;;;;;;;;;;2611363;54;20442;-75
2023/11/27 12:39:38;;;;;;;3.40;2.30;;;;;;;;;;2611570;54;20411;-74
2023/11/27 12:42:11;;;;;;;3.23;2.87;;;;;;;;;;2612227;39;21296;-72
2023/11/27 12:44:38;;;;;;;2.60;2.13;;;;;;;;;;2610207;54;20953;-74
2023/11/27 12:47:05;;;;;;;3.20;2.33;;;;;;;;;;2611543;54;20419;-73
2023/11/27 12:49:34;;;;;;;2.23;2.00;;;;;;;;;;2612524;54;20413;-73
2023/11/27 12:52:11;;;;;;;3.23;2.43;;;;;;;;;;2612354;54;20446;-73
2023/11/27 12:54:37;;;;;;;2.50;2.30;;;;;;;;;;2612488;47;20423;-72
2023/11/27 12:57:06;;;;;;;3.10;2.43;;;;;;;;;;2613376;54;20423;-73
2023/11/27 12:59:46;;;;;;;2.17;1.60;;;;;;;;;;2613054;54;20427;-73
2023/11/27 13:02:16;;;;;;;2.33;2.10;;;;;;;;;;2612889;54;20430;-73
2023/11/27 13:04:42;;;;;;;2.00;1.63;;;;;;;;;;2613858;54;20397;-74
2023/11/27 13:07:14;;;;;;;3.37;2.40;;;;;;;;;;2613691;54;20428;-73
2023/11/27 13:09:42;;;;;;;2.90;1.73;;;;;;;;;;2612830;47;20447;-73
2023/11/27 13:12:15;;;;;;;2.80;2.37;;;;;;;;;;2613246;54;20399;-74
2023/11/27 13:14:45;;;;;;;2.33;2.10;;;;;;;;;;2613129;54;20506;-73
2023/11/27 13:17:22;;;;;;;2.87;2.40;;;;;;;;;;2612531;54;20516;-74
2023/11/27 13:19:55;;;;;;;4.90;2.40;;;;;;;;;;2612411;47;20941;-74
2023/11/27 13:22:22;;;;;;;3.33;2.80;;;;;;;;;;2612819;46;20434;-73
2023/11/27 13:24:50;;;;;;;2.30;2.10;;;;;;;;;;2612575;47;20391;-73
2023/11/27 13:27:16;;;;;;;2.43;2.23;;;;;;;;;;2613531;54;20415;-75
2023/11/27 13:29:50;;;;;;;5.70;2.53;;;;;;;;;;2612796;54;20427;-72
2023/11/27 13:32:19;;;;;;;5.20;2.10;;;;;;;;;;2613465;54;20450;-73
2023/11/27 13:34:55;;;;;;;2.90;1.90;;;;;;;;;;2613330;54;20464;-73
2023/11/27 13:37:24;;;;;;;2.60;2.37;;;;;;;;;;2612947;39;20833;-72
2023/11/27 13:40:01;;;;;;;2.30;2.10;;;;;;;;;;2612724;54;20446;-74
2023/11/27 13:42:30;;;;;;;2.93;2.37;;;;;;;;;;2612374;54;20393;-74
2023/11/27 13:44:56;;;;;;;2.50;2.17;;;;;;;;;;2612099;54;20550;-73
2023/11/27 13:47:22;;;;;;;3.57;2.97;;;;;;;;;;2612781;54;20446;-74
2023/11/27 13:49:52;;;;;;;2.67;2.47;;;;;;;;;;2610713;47;20439;-73
2023/11/27 13:52:19;;;;;;;3.20;2.90;;;;;;;;;;2611614;54;20398;-74
2023/11/27 13:54:48;;;;;;;3.30;3.00;;;;;;;;;;2612725;54;20440;-71
2023/11/27 13:57:26;;;;;;;3.50;2.67;;;;;;;;;;2611771;54;20539;-73
2023/11/27 13:59:52;;;;;;;3.07;2.80;;;;;;;;;;2611383;47;20414;-72
2023/11/27 14:02:18;;;;;;;3.07;2.77;;;;;;;;;;2612240;54;20438;-72
2023/11/27 14:04:54;;;;;;;2.97;2.47;;;;;;;;;;2611959;54;20421;-73
2023/11/27 14:07:24;;;;;;;2.33;2.13;;;;;;;;;;2614019;54;21048;-74
2023/11/27 14:09:55;;;;;;;4.13;3.00;;;;;;;;;;2615484;54;20414;-73
2023/11/27 14:12:26;;;;;;;3.80;2.63;;;;;;;;;;2615100;54;20463;-75
2023/11/27 14:15:23;;;;;;;3.73;3.13;;;;;;;;;;2614799;54;20405;-74
2023/11/27 14:20:51;;;;;;;2.57;2.20;;;;;;;;;;2616192;39;20820;-74
2023/11/27 14:23:36;;;;;;;3.20;2.90;;;;;;;;;;2615146;51;20415;-74
2023/11/27 14:28:57;;;;;;;3.53;3.07;;;;;;;;;;2615249;54;20435;-74
2023/11/27 14:31:37;;;;;;;3.40;2.93;;;;;;;;;;2615582;54;20953;-73
2023/11/27 14:34:04;;;;;;;2.30;1.97;;;;;;;;;;2615072;47;20437;-73
2023/11/27 14:36:32;;;;;;;3.30;3.00;;;;;;;;;;2614696;54;20424;-74
2023/11/27 14:39:15;;;;;;;2.40;2.20;;;;;;;;;;2615431;54;20403;-74
2023/11/27 14:41:42;;;;;;;2.67;2.40;;;;;;;;;;2615688;54;20391;-75
2023/11/27 14:44:13;;;;;;;2.83;2.63;;;;;;;;;;2613896;54;20427;-74
2023/11/27 14:46:53;;;;;;;2.70;2.10;;;;;;;;;;2615662;54;20411;-74
2023/11/27 14:49:21;;;;;;;3.40;2.70;;;;;;;;;;2614537;54;20415;-74